Terminal Aerodrome Forecast
Issued by NWS Atlanta, GA

Home | Current Version | Previous Version | Text Only | Print | Product List | Glossary On
Versions: 1 2 3 4 5 6 7 8 9 10 11 12 13 14 15 16 17
610
FTUS42 KFFC 242322
TAFCSG
TAF
KCSG 242322Z 2500/2524 17006KT P6SM VCSH SCT060 SCT120
     FM250100 00000KT P6SM SCT250
     FM251400 09003KT P6SM SCT030
     FM251800 11007KT P6SM SCT050=

USA.gov is the U.S. government's official web portal to all federal, state and local government web resources and services.